Medora, Kansas
Current Conditions -  °F | °C
As of 2:17 AM on Monday 22 Dec 2014 (Local Time) from KHUT Reporting Station
Haze Haze  
Wind Chill: 39°   Ceiling: 300
Heat Index: 45°   Visibility: 2.5mi
Dew Point: 42°   Wind: 12mph
Humidity: 90%   Direction: 160°SSE
Pressure: 29.57"   Gusts: NA
Location:  38.1208°N, 97.9192°W
Report Text: KHUT 220817Z AUTO 16010KT 2 1/2SM BR OVC003 07/06 A2957 RMK AO2 T00720056
Loading
Personal Weather Stations






























Interactive Weather Map New forecast layout! Learn more

10-Day Weather Forecast

Advertisements
Track Severe Weather on mobile